Time;durP1;ratioP1;P1;durP2;ratioP2;P2;SDS_P1;SDS_P2;PMS_P1;PMS_P2;Temp;Humidity;BMP_temperature;BMP_pressure;BME280_temperature;BME280_humidity;BME280_pressure;Samples;Min_cycle;Max_cycle;Signal;HPM_P1;HPM_P2
2022/05/31 00:00:58;;;;;;;3.75;2.00;;;;;;;;;;5055402;28;20043;-61
2022/05/31 00:03:23;;;;;;;5.18;2.00;;;;;;;;;;5054258;28;20479;-61
2022/05/31 00:05:50;;;;;;;2.80;1.73;;;;;;;;;;5053619;28;20101;-61
2022/05/31 00:08:16;;;;;;;7.05;2.20;;;;;;;;;;5051590;28;20035;-61
2022/05/31 00:10:42;;;;;;;6.75;2.13;;;;;;;;;;5059747;28;20036;-61
2022/05/31 00:13:08;;;;;;;9.05;2.42;;;;;;;;;;5061607;28;20027;-60
2022/05/31 00:15:34;;;;;;;6.25;2.33;;;;;;;;;;5056211;28;20502;-61
2022/05/31 00:17:59;;;;;;;5.55;2.40;;;;;;;;;;5053258;28;20040;-61
2022/05/31 00:20:26;;;;;;;4.93;2.28;;;;;;;;;;5051401;28;20082;-60
2022/05/31 00:22:52;;;;;;;3.17;1.92;;;;;;;;;;5053357;28;20580;-61
2022/05/31 00:25:18;;;;;;;8.38;2.60;;;;;;;;;;5056511;28;20032;-61
2022/05/31 00:27:44;;;;;;;3.55;1.83;;;;;;;;;;5056743;28;20519;-61
2022/05/31 00:30:12;;;;;;;2.47;2.28;;;;;;;;;;5051651;28;20037;-61
2022/05/31 00:32:41;;;;;;;6.05;2.00;;;;;;;;;;5054536;28;20039;-61
2022/05/31 00:35:20;;;;;;;6.85;2.20;;;;;;;;;;5055374;28;20473;-60
2022/05/31 00:37:46;;;;;;;7.65;1.98;;;;;;;;;;5054965;28;20135;-60
2022/05/31 00:40:14;;;;;;;10.63;2.55;;;;;;;;;;5050323;28;20170;-61
2022/05/31 00:43:01;;;;;;;8.25;2.95;;;;;;;;;;5056558;28;20032;-60
2022/05/31 00:45:36;;;;;;;6.93;1.85;;;;;;;;;;5052936;28;20508;-60
2022/05/31 00:48:05;;;;;;;3.67;2.10;;;;;;;;;;5051718;28;20040;-61
2022/05/31 00:50:55;;;;;;;8.93;2.50;;;;;;;;;;5056145;28;20052;-60
2022/05/31 00:53:28;;;;;;;3.88;2.22;;;;;;;;;;5053898;28;20066;-61
2022/05/31 00:55:59;;;;;;;7.50;2.10;;;;;;;;;;5061608;28;20049;-60
2022/05/31 00:58:30;;;;;;;14.25;2.35;;;;;;;;;;5057578;28;20021;-60
2022/05/31 01:01:02;;;;;;;7.57;2.22;;;;;;;;;;5062358;28;20047;-61
2022/05/31 01:03:28;;;;;;;;;;;;;;;;;;5059642;28;20024;-60
2022/05/31 01:05:54;;;;;;;4.97;2.20;;;;;;;;;;5055917;28;19921;-61
2022/05/31 01:08:20;;;;;;;2.53;2.13;;;;;;;;;;5063716;28;20033;-61
2022/05/31 01:10:46;;;;;;;5.97;2.35;;;;;;;;;;5061795;28;20067;-61
2022/05/31 01:13:17;;;;;;;9.32;2.08;;;;;;;;;;5063572;28;20151;-61
2022/05/31 01:15:45;;;;;;;5.20;2.43;;;;;;;;;;5064620;28;20499;-60
2022/05/31 01:18:12;;;;;;;7.45;2.47;;;;;;;;;;5057885;28;20529;-61
2022/05/31 01:20:38;;;;;;;9.70;3.60;;;;;;;;;;5056172;28;20029;-60
2022/05/31 01:23:10;;;;;;;5.82;2.00;;;;;;;;;;5058080;28;20029;-61
2022/05/31 01:25:58;;;;;;;7.35;2.53;;;;;;;;;;5065080;28;20033;-61
2022/05/31 01:28:24;;;;;;;7.15;2.13;;;;;;;;;;5061093;28;20033;-60
2022/05/31 01:30:57;;;;;;;5.30;2.50;;;;;;;;;;5063867;28;20047;-60
2022/05/31 01:33:48;;;;;;;5.85;2.40;;;;;;;;;;5055167;28;20036;-60
2022/05/31 01:36:22;;;;;;;6.53;2.20;;;;;;;;;;5056355;28;20103;-61
2022/05/31 01:38:54;;;;;;;6.50;2.20;;;;;;;;;;5058894;28;20485;-61
2022/05/31 01:41:31;;;;;;;4.72;2.15;;;;;;;;;;5063897;28;20124;-61
2022/05/31 01:44:00;;;;;;;4.53;2.25;;;;;;;;;;5056217;28;20464;-61
2022/05/31 01:46:31;;;;;;;6.85;1.95;;;;;;;;;;5062407;28;20017;-60
2022/05/31 01:48:58;;;;;;;8.25;2.40;;;;;;;;;;5059457;28;20108;-61
2022/05/31 01:51:24;;;;;;;6.28;1.95;;;;;;;;;;5052369;28;20082;-61
2022/05/31 01:53:53;;;;;;;8.07;2.45;;;;;;;;;;5053697;28;20025;-60
2022/05/31 01:56:18;;;;;;;3.95;2.03;;;;;;;;;;5062018;28;20040;-60
2022/05/31 01:58:49;;;;;;;5.72;2.20;;;;;;;;;;5059130;28;20047;-60
2022/05/31 02:01:15;;;;;;;6.40;1.80;;;;;;;;;;5061669;28;20106;-60
2022/05/31 02:03:43;;;;;;;7.13;2.00;;;;;;;;;;5054910;28;20947;-60
2022/05/31 02:06:28;;;;;;;11.68;2.10;;;;;;;;;;5052506;28;20039;-61
2022/05/31 02:08:54;;;;;;;7.45;2.20;;;;;;;;;;5052164;28;20219;-60
2022/05/31 02:11:20;;;;;;;5.18;2.45;;;;;;;;;;5062782;28;20457;-60
2022/05/31 02:13:46;;;;;;;10.50;2.60;;;;;;;;;;5059952;28;20029;-60
2022/05/31 02:16:13;;;;;;;3.92;2.08;;;;;;;;;;5061647;28;20075;-60
2022/05/31 02:21:23;;;;;;;4.07;2.45;;;;;;;;;;5057503;28;20031;-61
2022/05/31 02:23:49;;;;;;;5.32;1.95;;;;;;;;;;5061946;28;20394;-60
2022/05/31 02:26:15;;;;;;;5.03;2.00;;;;;;;;;;5061509;28;20078;-60
2022/05/31 02:28:41;;;;;;;7.25;1.92;;;;;;;;;;5057455;28;20491;-60
2022/05/31 02:31:07;;;;;;;8.00;2.72;;;;;;;;;;5058583;28;20041;-60
2022/05/31 02:33:33;;;;;;;5.72;2.35;;;;;;;;;;5058799;28;20024;-61
2022/05/31 02:35:59;;;;;;;3.53;2.00;;;;;;;;;;5055332;28;20019;-60
2022/05/31 02:38:24;;;;;;;7.88;2.50;;;;;;;;;;5054603;28;20025;-60
2022/05/31 02:40:50;;;;;;;8.52;2.08;;;;;;;;;;5057224;28;20021;-60
2022/05/31 02:43:16;;;;;;;7.18;2.80;;;;;;;;;;5060673;28;20044;-61
2022/05/31 02:45:41;;;;;;;4.72;2.03;;;;;;;;;;5058518;28;20041;-60
2022/05/31 02:48:07;;;;;;;3.60;2.17;;;;;;;;;;5059550;28;20032;-60
2022/05/31 02:50:33;;;;;;;4.60;2.33;;;;;;;;;;5056200;28;20033;-60
2022/05/31 02:52:59;;;;;;;8.02;2.25;;;;;;;;;;5052625;28;20029;-61
2022/05/31 02:55:24;;;;;;;7.15;2.10;;;;;;;;;;5062808;28;20451;-60
2022/05/31 02:57:50;;;;;;;4.30;2.20;;;;;;;;;;5059125;28;20502;-60
2022/05/31 03:00:17;;;;;;;13.48;1.95;;;;;;;;;;5061680;28;20035;-60
2022/05/31 03:02:42;;;;;;;4.60;2.40;;;;;;;;;;5054301;28;20033;-60
2022/05/31 03:05:08;;;;;;;5.55;2.17;;;;;;;;;;5052340;28;20496;-60
2022/05/31 03:07:34;;;;;;;6.80;2.30;;;;;;;;;;5058617;28;20024;-60
2022/05/31 03:09:59;;;;;;;3.60;2.28;;;;;;;;;;5058888;28;20083;-60
2022/05/31 03:12:26;;;;;;;9.23;3.00;;;;;;;;;;5054481;28;20443;-60
2022/05/31 03:15:14;;;;;;;5.82;2.40;;;;;;;;;;5054101;28;20028;-60
2022/05/31 03:17:44;;;;;;;8.38;2.28;;;;;;;;;;5056666;28;20489;-60
2022/05/31 03:20:33;;;;;;;4.93;2.35;;;;;;;;;;5051678;28;20071;-60
2022/05/31 03:23:19;;;;;;;11.38;2.38;;;;;;;;;;5053877;28;20390;-61
2022/05/31 03:25:47;;;;;;;5.43;2.03;;;;;;;;;;5055672;28;20562;-60
2022/05/31 03:28:14;;;;;;;15.50;2.60;;;;;;;;;;5055122;28;20393;-60
2022/05/31 03:30:39;;;;;;;4.28;2.10;;;;;;;;;;5056080;28;20529;-61
2022/05/31 03:33:10;;;;;;;6.43;2.20;;;;;;;;;;5055427;28;20120;-60
2022/05/31 03:35:36;;;;;;;3.08;2.00;;;;;;;;;;5052920;28;20074;-61
2022/05/31 03:38:02;;;;;;;4.80;2.20;;;;;;;;;;5064452;28;20507;-61
2022/05/31 03:43:12;;;;;;;8.60;2.00;;;;;;;;;;5058573;28;20070;-60
2022/05/31 03:45:41;;;;;;;7.80;2.53;;;;;;;;;;5058182;28;20044;-60
2022/05/31 03:48:09;;;;;;;6.95;2.42;;;;;;;;;;5058999;28;20062;-60
2022/05/31 03:50:35;;;;;;;7.85;3.72;;;;;;;;;;5057242;28;20060;-60
2022/05/31 03:53:01;;;;;;;4.70;2.03;;;;;;;;;;5062730;28;20102;-60
2022/05/31 03:55:27;;;;;;;7.70;2.55;;;;;;;;;;5056405;28;20122;-60
2022/05/31 03:57:53;;;;;;;11.68;2.58;;;;;;;;;;5060150;28;20024;-60
2022/05/31 04:00:19;;;;;;;4.22;2.65;;;;;;;;;;5052556;28;20542;-60
2022/05/31 04:02:45;;;;;;;3.20;1.90;;;;;;;;;;5056621;28;20037;-60
2022/05/31 04:05:13;;;;;;;3.60;1.83;;;;;;;;;;5057782;28;20036;-60
2022/05/31 04:07:39;;;;;;;3.65;2.15;;;;;;;;;;5063557;28;20031;-60
2022/05/31 04:10:07;;;;;;;7.35;2.20;;;;;;;;;;5059163;28;20385;-60
2022/05/31 04:12:34;;;;;;;6.25;2.47;;;;;;;;;;5056518;28;20025;-60
2022/05/31 04:15:03;;;;;;;5.40;2.25;;;;;;;;;;5060730;28;20035;-60
2022/05/31 04:17:29;;;;;;;4.82;2.50;;;;;;;;;;5071364;28;20028;-60
2022/05/31 04:19:55;;;;;;;18.30;2.72;;;;;;;;;;5068029;28;20123;-60
2022/05/31 04:22:20;;;;;;;3.83;2.13;;;;;;;;;;5058410;28;20108;-60
2022/05/31 04:24:46;;;;;;;7.95;2.60;;;;;;;;;;5061783;28;20040;-60
2022/05/31 04:27:15;;;;;;;3.35;1.90;;;;;;;;;;5062694;28;20366;-60
2022/05/31 04:29:41;;;;;;;11.93;2.65;;;;;;;;;;5054879;28;20028;-60
2022/05/31 04:32:07;;;;;;;7.60;2.70;;;;;;;;;;5053468;28;20512;-61
2022/05/31 04:34:33;;;;;;;6.10;2.50;;;;;;;;;;5054944;28;20057;-60
2022/05/31 04:37:00;;;;;;;8.95;2.90;;;;;;;;;;5053181;28;20039;-60
2022/05/31 04:39:26;;;;;;;4.03;2.78;;;;;;;;;;5055304;28;20123;-60
2022/05/31 04:41:51;;;;;;;11.68;2.63;;;;;;;;;;5058809;28;20509;-60
2022/05/31 04:44:18;;;;;;;9.55;3.00;;;;;;;;;;5054770;28;20072;-61
2022/05/31 04:46:44;;;;;;;4.80;2.95;;;;;;;;;;5057013;28;20547;-60
2022/05/31 04:49:11;;;;;;;13.38;2.72;;;;;;;;;;5058434;28;20028;-60
2022/05/31 04:51:37;;;;;;;15.13;3.38;;;;;;;;;;5057096;28;20032;-60
2022/05/31 04:54:04;;;;;;;6.82;2.90;;;;;;;;;;5055998;28;20127;-60
2022/05/31 04:56:31;;;;;;;13.90;2.45;;;;;;;;;;5053337;28;20477;-60
2022/05/31 04:58:57;;;;;;;6.40;2.70;;;;;;;;;;5050361;28;20029;-60
2022/05/31 05:01:24;;;;;;;5.82;2.42;;;;;;;;;;5057142;28;20438;-60
2022/05/31 05:03:50;;;;;;;6.85;2.50;;;;;;;;;;5061465;28;20025;-60
2022/05/31 05:06:18;;;;;;;11.80;3.08;;;;;;;;;;5055058;28;20375;-61
2022/05/31 05:08:44;;;;;;;9.68;3.28;;;;;;;;;;5052217;28;20033;-60
2022/05/31 05:11:21;;;;;;;6.28;2.97;;;;;;;;;;5053979;28;20111;-60
2022/05/31 05:13:47;;;;;;;6.45;2.67;;;;;;;;;;5055875;28;20029;-59
2022/05/31 05:16:15;;;;;;;10.10;2.67;;;;;;;;;;5058358;28;20035;-60
2022/05/31 05:18:41;;;;;;;7.47;2.78;;;;;;;;;;5055133;28;20025;-60
2022/05/31 05:21:10;;;;;;;8.18;3.22;;;;;;;;;;5053221;28;20396;-60
2022/05/31 05:23:36;;;;;;;7.25;2.70;;;;;;;;;;5055606;28;20082;-60
2022/05/31 05:26:02;;;;;;;4.72;2.55;;;;;;;;;;5053193;28;20088;-60
2022/05/31 05:31:26;;;;;;;11.85;3.25;;;;;;;;;;5062287;28;20035;-60
2022/05/31 05:33:55;;;;;;;11.38;3.35;;;;;;;;;;5056277;28;20032;-60
2022/05/31 05:36:22;;;;;;;12.55;3.42;;;;;;;;;;5051179;28;20064;-60
2022/05/31 05:38:48;;;;;;;9.82;3.53;;;;;;;;;;5058817;28;20036;-60
2022/05/31 05:41:15;;;;;;;8.00;2.63;;;;;;;;;;5050353;28;20465;-60
2022/05/31 05:43:41;;;;;;;12.70;3.00;;;;;;;;;;5051282;28;20400;-61
2022/05/31 05:46:16;;;;;;;9.80;3.17;;;;;;;;;;5043646;28;20124;-62
2022/05/31 05:48:42;;;;;;;11.10;3.53;;;;;;;;;;5059500;28;20548;-61
2022/05/31 05:51:21;;;;;;;6.45;2.88;;;;;;;;;;5044034;28;20036;-61
2022/05/31 05:53:47;;;;;;;6.30;3.17;;;;;;;;;;5056143;28;20032;-61
2022/05/31 05:56:14;;;;;;;12.88;3.20;;;;;;;;;;5058683;28;20045;-61
2022/05/31 05:58:40;;;;;;;11.82;3.10;;;;;;;;;;5073688;28;20024;-61
2022/05/31 06:01:14;;;;;;;7.72;2.53;;;;;;;;;;5066020;28;20503;-61
2022/05/31 06:03:52;;;;;;;5.05;2.58;;;;;;;;;;5057458;28;20082;-61
2022/05/31 06:06:18;;;;;;;7.63;2.65;;;;;;;;;;5043820;28;20032;-61
2022/05/31 06:09:04;;;;;;;8.23;3.20;;;;;;;;;;5045375;28;20946;-61
2022/05/31 06:11:55;;;;;;;8.13;3.03;;;;;;;;;;5061488;28;20033;-61
2022/05/31 06:14:35;;;;;;;9.77;2.35;;;;;;;;;;5039421;28;20048;-61
2022/05/31 06:17:14;;;;;;;9.43;3.05;;;;;;;;;;5053698;28;20040;-61
2022/05/31 06:19:40;;;;;;;4.72;2.25;;;;;;;;;;5058504;28;20025;-61
2022/05/31 06:22:08;;;;;;;13.48;2.65;;;;;;;;;;5060971;28;20040;-61
2022/05/31 06:24:35;;;;;;;10.82;2.67;;;;;;;;;;5061655;28;20431;-61
2022/05/31 06:27:01;;;;;;;6.43;2.25;;;;;;;;;;5059297;28;20028;-61
2022/05/31 06:29:29;;;;;;;6.50;2.53;;;;;;;;;;5059040;28;20099;-61
2022/05/31 06:31:55;;;;;;;9.07;2.53;;;;;;;;;;5052284;28;20040;-61
2022/05/31 06:34:22;;;;;;;16.63;2.95;;;;;;;;;;5060393;28;20029;-61
2022/05/31 06:36:49;;;;;;;12.50;2.97;;;;;;;;;;5060742;28;20045;-61
2022/05/31 06:39:16;;;;;;;6.65;2.55;;;;;;;;;;5062145;28;20114;-61
2022/05/31 06:41:41;;;;;;;15.85;2.47;;;;;;;;;;5051710;28;20036;-61
2022/05/31 06:44:07;;;;;;;6.25;2.97;;;;;;;;;;5055818;28;20040;-61
2022/05/31 06:46:33;;;;;;;7.13;3.00;;;;;;;;;;5057506;28;20500;-61
2022/05/31 06:49:00;;;;;;;6.07;2.78;;;;;;;;;;5055661;28;20862;-61
2022/05/31 06:56:58;;;;;;;7.07;2.80;;;;;;;;;;5054711;28;20041;-62
2022/05/31 06:59:24;;;;;;;6.03;2.38;;;;;;;;;;5055731;28;20066;-60
2022/05/31 07:01:50;;;;;;;8.63;2.85;;;;;;;;;;5055309;28;20091;-60
2022/05/31 07:04:16;;;;;;;14.63;2.70;;;;;;;;;;5057893;28;20032;-60
2022/05/31 07:06:42;;;;;;;6.80;2.70;;;;;;;;;;5058774;28;20033;-60
2022/05/31 07:09:08;;;;;;;6.30;2.80;;;;;;;;;;5057947;28;20038;-60
2022/05/31 07:11:34;;;;;;;9.70;3.30;;;;;;;;;;5059815;28;20025;-60
2022/05/31 07:14:01;;;;;;;5.45;2.67;;;;;;;;;;5051645;28;20032;-60
2022/05/31 07:16:27;;;;;;;6.30;2.80;;;;;;;;;;5055260;28;20115;-60
2022/05/31 07:18:55;;;;;;;12.70;3.10;;;;;;;;;;5058494;28;20029;-60
2022/05/31 07:21:21;;;;;;;16.00;2.90;;;;;;;;;;5056007;28;20037;-60
2022/05/31 07:23:47;;;;;;;7.43;2.30;;;;;;;;;;5052399;28;20397;-60
2022/05/31 07:26:12;;;;;;;12.90;3.25;;;;;;;;;;5064210;28;20521;-60
2022/05/31 07:28:39;;;;;;;7.28;2.55;;;;;;;;;;5057604;28;20024;-60
2022/05/31 07:31:05;;;;;;;6.85;2.63;;;;;;;;;;5042688;28;20021;-60
2022/05/31 07:33:31;;;;;;;6.72;2.30;;;;;;;;;;5055523;28;20040;-60
2022/05/31 07:35:57;;;;;;;8.57;2.58;;;;;;;;;;5066349;28;20029;-60
2022/05/31 07:38:23;;;;;;;4.47;2.03;;;;;;;;;;5057024;28;20035;-60
2022/05/31 07:40:50;;;;;;;5.47;2.13;;;;;;;;;;5054534;28;20033;-60
2022/05/31 07:43:16;;;;;;;5.97;2.00;;;;;;;;;;5056721;28;20661;-61
2022/05/31 07:45:42;;;;;;;3.05;1.88;;;;;;;;;;5058635;28;20024;-60
2022/05/31 07:48:09;;;;;;;7.88;2.13;;;;;;;;;;5052396;28;20408;-60
2022/05/31 07:50:35;;;;;;;2.10;1.88;;;;;;;;;;5058414;28;20029;-60
2022/05/31 07:53:01;;;;;;;8.07;2.25;;;;;;;;;;5047205;28;20038;-60
2022/05/31 07:55:28;;;;;;;12.55;2.78;;;;;;;;;;5058708;28;20036;-60
2022/05/31 08:00:40;;;;;;;4.47;2.22;;;;;;;;;;5058578;28;20025;-60
2022/05/31 08:03:07;;;;;;;6.40;2.08;;;;;;;;;;5054349;28;20033;-60
2022/05/31 08:05:36;;;;;;;6.32;2.03;;;;;;;;;;5046014;28;20039;-60
2022/05/31 08:08:02;;;;;;;7.20;2.28;;;;;;;;;;5059131;28;20541;-60
2022/05/31 08:10:29;;;;;;;7.03;2.00;;;;;;;;;;5061111;28;20029;-60
2022/05/31 08:12:55;;;;;;;6.32;2.10;;;;;;;;;;5055147;28;20036;-59
2022/05/31 08:15:20;;;;;;;8.38;1.90;;;;;;;;;;5060874;28;20017;-60
2022/05/31 08:17:46;;;;;;;3.72;2.08;;;;;;;;;;5056217;28;20061;-60
2022/05/31 08:20:16;;;;;;;13.57;2.78;;;;;;;;;;5050530;28;20031;-60
2022/05/31 08:22:44;;;;;;;5.80;2.35;;;;;;;;;;5053369;28;20433;-60
2022/05/31 08:25:11;;;;;;;8.57;2.25;;;;;;;;;;5056563;28;20059;-60
2022/05/31 08:27:37;;;;;;;8.25;2.42;;;;;;;;;;5062869;28;20028;-60
2022/05/31 08:30:03;;;;;;;9.27;2.55;;;;;;;;;;5053010;28;20042;-61
2022/05/31 08:32:31;;;;;;;11.52;2.53;;;;;;;;;;5056016;28;20086;-60
2022/05/31 08:34:57;;;;;;;6.78;2.30;;;;;;;;;;5052745;28;20111;-60
2022/05/31 08:37:22;;;;;;;10.07;2.30;;;;;;;;;;5057142;28;20123;-60
2022/05/31 08:39:48;;;;;;;8.13;2.35;;;;;;;;;;5052475;28;20666;-60
2022/05/31 08:42:18;;;;;;;6.88;2.40;;;;;;;;;;5054943;28;20045;-61
2022/05/31 08:45:03;;;;;;;7.15;2.60;;;;;;;;;;5054911;28;20037;-61
2022/05/31 08:47:46;;;;;;;10.48;3.03;;;;;;;;;;5053069;28;20029;-62
2022/05/31 08:53:15;;;;;;;13.32;2.30;;;;;;;;;;5055787;28;20044;-61
2022/05/31 08:58:50;;;;;;;9.60;2.15;;;;;;;;;;5053116;28;20123;-61
2022/05/31 09:01:21;;;;;;;5.72;2.50;;;;;;;;;;5068202;28;20128;-61
2022/05/31 09:04:02;;;;;;;6.13;1.92;;;;;;;;;;5052719;28;20478;-61
2022/05/31 09:06:38;;;;;;;8.65;2.10;;;;;;;;;;5052331;28;20474;-61
2022/05/31 09:09:20;;;;;;;7.72;2.70;;;;;;;;;;5053208;28;20024;-60
2022/05/31 09:11:57;;;;;;;;;;;;;;;;;;5054893;28;20107;-60
2022/05/31 09:14:49;;;;;;;5.20;2.42;;;;;;;;;;5052772;28;20377;-59
2022/05/31 09:17:40;;;;;;;;;;;;;;;;;;5058142;28;20056;-61
2022/05/31 09:20:10;;;;;;;7.95;2.28;;;;;;;;;;5053870;28;19963;-61
2022/05/31 09:22:43;;;;;;;6.43;1.88;;;;;;;;;;5061381;28;20025;-61
2022/05/31 09:25:10;;;;;;;3.92;1.88;;;;;;;;;;5046171;28;20025;-61
2022/05/31 09:27:42;;;;;;;9.30;1.88;;;;;;;;;;5064587;28;20056;-61
2022/05/31 09:30:10;;;;;;;;;;;;;;;;;;5062137;28;20032;-61
2022/05/31 09:32:57;;;;;;;7.60;1.83;;;;;;;;;;5058079;28;20268;-61
2022/05/31 09:35:40;;;;;;;4.07;1.75;;;;;;;;;;5056695;28;20032;-61
2022/05/31 09:38:34;;;;;;;13.52;2.85;;;;;;;;;;5058960;28;20043;-61
2022/05/31 09:41:07;;;;;;;7.13;2.15;;;;;;;;;;5059141;28;20028;-61
2022/05/31 09:43:47;;;;;;;11.15;2.58;;;;;;;;;;5064385;28;20119;-61
2022/05/31 09:46:34;;;;;;;8.25;2.05;;;;;;;;;;5066513;28;20028;-61
2022/05/31 09:49:13;;;;;;;6.60;2.00;;;;;;;;;;5063479;28;20036;-60
2022/05/31 09:51:42;;;;;;;13.38;2.80;;;;;;;;;;5058572;28;20032;-61
2022/05/31 09:57:06;;;;;;;13.07;2.40;;;;;;;;;;5058154;28;20055;-61
2022/05/31 09:59:35;;;;;;;5.80;2.33;;;;;;;;;;5063587;28;20116;-61
2022/05/31 10:02:29;;;;;;;7.13;2.10;;;;;;;;;;5061487;28;20036;-61
2022/05/31 10:05:07;;;;;;;6.57;2.03;;;;;;;;;;5055082;28;20561;-61
2022/05/31 10:07:37;;;;;;;8.50;2.40;;;;;;;;;;5059958;28;20036;-61
2022/05/31 10:10:27;;;;;;;6.47;1.83;;;;;;;;;;5056862;28;20021;-61
2022/05/31 10:12:56;;;;;;;19.13;3.20;;;;;;;;;;5062454;28;20028;-61
2022/05/31 10:15:37;;;;;;;5.75;2.30;;;;;;;;;;5058850;28;20508;-61
2022/05/31 10:18:05;;;;;;;5.60;2.47;;;;;;;;;;5055758;28;20024;-61
2022/05/31 10:20:32;;;;;;;9.18;2.38;;;;;;;;;;5054393;28;20612;-61
2022/05/31 10:22:59;;;;;;;9.80;2.40;;;;;;;;;;5052918;28;20033;-61
2022/05/31 10:25:35;;;;;;;5.25;2.20;;;;;;;;;;5059811;28;20040;-61
2022/05/31 10:28:12;;;;;;;12.85;3.17;;;;;;;;;;5063680;28;20028;-61
2022/05/31 10:30:39;;;;;;;7.70;2.60;;;;;;;;;;5060264;28;20132;-61
2022/05/31 10:33:24;;;;;;;10.20;2.15;;;;;;;;;;5055437;28;20190;-61
2022/05/31 10:36:03;;;;;;;6.05;2.13;;;;;;;;;;5054375;28;20032;-61
2022/05/31 10:38:31;;;;;;;9.63;2.28;;;;;;;;;;5059664;28;20599;-61
2022/05/31 10:41:01;;;;;;;4.78;2.00;;;;;;;;;;5058561;28;20520;-61
2022/05/31 10:43:40;;;;;;;5.40;2.15;;;;;;;;;;5058214;28;20388;-61
2022/05/31 10:46:15;;;;;;;8.93;2.50;;;;;;;;;;5058579;28;20116;-61
2022/05/31 10:48:48;;;;;;;4.72;2.13;;;;;;;;;;5058245;28;20485;-61
2022/05/31 10:51:21;;;;;;;6.45;2.13;;;;;;;;;;5058493;28;20489;-61
2022/05/31 10:54:05;;;;;;;11.27;2.38;;;;;;;;;;5057662;28;20037;-60
2022/05/31 10:56:46;;;;;;;10.23;2.58;;;;;;;;;;5051608;28;20639;-60
2022/05/31 10:59:17;;;;;;;12.57;2.58;;;;;;;;;;5055409;28;20531;-61
2022/05/31 11:02:20;;;;;;;5.30;2.30;;;;;;;;;;5060242;28;20115;-59
2022/05/31 11:05:45;;;;;;;5.60;2.15;;;;;;;;;;5052886;28;20041;-61
2022/05/31 11:11:29;;;;;;;6.38;2.20;;;;;;;;;;5031697;28;20029;-60
2022/05/31 11:14:32;;;;;;;8.45;2.58;;;;;;;;;;5023708;28;20032;-61
2022/05/31 11:17:15;;;;;;;3.85;2.13;;;;;;;;;;5023523;28;20068;-61
2022/05/31 11:19:56;;;;;;;7.63;2.47;;;;;;;;;;5023595;28;20044;-61
2022/05/31 11:22:40;;;;;;;8.68;2.17;;;;;;;;;;5023598;28;20049;-61
2022/05/31 11:25:24;;;;;;;5.63;2.15;;;;;;;;;;5023602;28;20537;-61
2022/05/31 11:28:19;;;;;;;4.40;2.20;;;;;;;;;;5022461;28;20430;-61
2022/05/31 11:30:56;;;;;;;5.60;2.00;;;;;;;;;;5027449;28;20041;-61
2022/05/31 11:33:53;;;;;;;6.88;2.03;;;;;;;;;;5017870;28;20038;-61
2022/05/31 11:36:43;;;;;;;8.90;2.20;;;;;;;;;;5024236;28;20187;-61
2022/05/31 11:39:31;;;;;;;5.45;1.90;;;;;;;;;;5022083;28;20083;-61
2022/05/31 11:41:59;;;;;;;5.72;2.33;;;;;;;;;;5038747;28;20045;-62
2022/05/31 11:44:47;;;;;;;12.10;2.50;;;;;;;;;;5058435;28;20024;-60
2022/05/31 11:47:44;;;;;;;9.20;2.20;;;;;;;;;;5049564;28;20066;-61
2022/05/31 11:50:47;;;;;;;8.05;2.17;;;;;;;;;;5052021;28;20040;-60
2022/05/31 11:54:04;;;;;;;11.63;2.30;;;;;;;;;;5057783;28;20040;-61
2022/05/31 11:56:58;;;;;;;8.00;2.28;;;;;;;;;;5054286;28;20477;-61
2022/05/31 11:59:34;;;;;;;5.50;1.98;;;;;;;;;;5055972;28;20037;-61
2022/05/31 12:02:18;;;;;;;8.10;1.90;;;;;;;;;;5054102;28;20365;-62
2022/05/31 12:04:51;;;;;;;4.45;2.33;;;;;;;;;;5052369;28;20595;-61
2022/05/31 12:07:37;;;;;;;6.07;2.33;;;;;;;;;;5056222;28;20596;-61
2022/05/31 12:10:24;;;;;;;8.20;1.95;;;;;;;;;;5053199;28;20032;-61
2022/05/31 12:12:52;;;;;;;7.78;1.98;;;;;;;;;;5055740;28;20028;-61
2022/05/31 12:15:42;;;;;;;9.18;2.05;;;;;;;;;;5052227;28;20081;-61
2022/05/31 12:18:36;;;;;;;4.82;2.20;;;;;;;;;;5054725;28;20035;-61
2022/05/31 12:21:29;;;;;;;8.32;2.50;;;;;;;;;;5053319;28;20952;-61
2022/05/31 12:24:16;;;;;;;6.15;2.25;;;;;;;;;;5056936;28;20028;-61
2022/05/31 12:26:45;;;;;;;9.25;2.20;;;;;;;;;;5062643;28;20028;-61
2022/05/31 12:29:22;;;;;;;3.42;1.80;;;;;;;;;;5054339;28;20029;-61
2022/05/31 12:31:48;;;;;;;8.80;2.50;;;;;;;;;;5054630;28;20033;-61
2022/05/31 12:34:20;;;;;;;10.77;2.72;;;;;;;;;;5051204;28;20036;-63
2022/05/31 12:36:57;;;;;;;;;;;;;;;;;;5053120;28;20035;-61
2022/05/31 12:39:27;;;;;;;4.43;2.20;;;;;;;;;;5053646;28;19927;-61
2022/05/31 12:41:54;;;;;;;8.27;2.50;;;;;;;;;;5056861;28;20036;-61
2022/05/31 12:44:34;;;;;;;5.97;2.08;;;;;;;;;;5052123;28;20455;-61
2022/05/31 12:47:45;;;;;;;9.70;2.83;;;;;;;;;;5056601;28;20033;-61
2022/05/31 12:50:12;;;;;;;7.13;2.00;;;;;;;;;;5046998;28;20032;-61
2022/05/31 12:55:25;;;;;;;9.52;2.03;;;;;;;;;;5059491;28;20316;-61
2022/05/31 12:58:35;;;;;;;4.97;2.05;;;;;;;;;;5061522;28;20043;-62
2022/05/31 13:01:27;;;;;;;7.25;2.70;;;;;;;;;;5063410;28;20517;-62
2022/05/31 13:04:28;;;;;;;7.47;2.13;;;;;;;;;;5057091;28;20025;-62
2022/05/31 13:07:39;;;;;;;4.13;2.22;;;;;;;;;;4974707;28;20399;-62
2022/05/31 13:19:34;;;;;;;7.57;2.20;;;;;;;;;;4969314;28;20086;-61
2022/05/31 13:22:06;;;;;;;7.90;2.42;;;;;;;;;;4969349;28;20038;-61
2022/05/31 13:24:35;;;;;;;12.27;2.35;;;;;;;;;;4971220;28;20030;-61
2022/05/31 13:27:06;;;;;;;5.85;2.53;;;;;;;;;;4971583;28;20551;-62
2022/05/31 13:29:32;;;;;;;7.57;2.22;;;;;;;;;;4971648;28;20046;-61
2022/05/31 13:32:03;;;;;;;13.85;2.50;;;;;;;;;;4967831;28;20412;-61
2022/05/31 13:34:43;;;;;;;9.15;2.35;;;;;;;;;;4969731;28;20039;-63
2022/05/31 13:37:19;;;;;;;5.28;1.90;;;;;;;;;;4968853;28;20034;-63
2022/05/31 13:39:48;;;;;;;7.43;2.10;;;;;;;;;;4970538;28;20038;-62
2022/05/31 13:42:29;;;;;;;4.20;1.98;;;;;;;;;;4973637;28;20043;-63
2022/05/31 13:44:55;;;;;;;7.27;2.00;;;;;;;;;;4978560;28;20094;-63
2022/05/31 13:47:21;;;;;;;4.40;1.77;;;;;;;;;;5028254;28;20289;-61
2022/05/31 13:49:49;;;;;;;6.47;2.45;;;;;;;;;;5058803;28;20024;-63
2022/05/31 13:52:22;;;;;;;5.63;1.80;;;;;;;;;;5054039;28;20025;-63
2022/05/31 13:54:48;;;;;;;5.68;1.48;;;;;;;;;;5054819;28;20049;-62
2022/05/31 13:57:18;;;;;;;6.68;1.73;;;;;;;;;;5050228;28;20040;-62
2022/05/31 13:59:50;;;;;;;3.60;1.88;;;;;;;;;;5058917;28;20032;-61
2022/05/31 14:02:48;;;;;;;8.38;2.10;;;;;;;;;;5066130;28;20029;-62
2022/05/31 14:05:24;;;;;;;5.88;2.17;;;;;;;;;;5052525;28;20047;-62
2022/05/31 14:07:51;;;;;;;6.18;1.95;;;;;;;;;;5054867;28;20500;-61
2022/05/31 14:10:20;;;;;;;6.90;2.08;;;;;;;;;;5054365;28;20533;-61
2022/05/31 14:12:47;;;;;;;8.85;2.03;;;;;;;;;;5055577;28;20039;-62
2022/05/31 14:15:26;;;;;;;4.80;2.08;;;;;;;;;;5055987;28;20024;-62
2022/05/31 14:18:07;;;;;;;9.63;1.90;;;;;;;;;;5054559;28;20501;-62
2022/05/31 14:20:37;;;;;;;6.65;2.15;;;;;;;;;;5057679;28;20051;-62
2022/05/31 14:23:13;;;;;;;7.88;1.90;;;;;;;;;;5058574;28;20041;-62
2022/05/31 14:25:45;;;;;;;5.05;2.58;;;;;;;;;;5045388;28;20102;-62
2022/05/31 14:28:16;;;;;;;3.97;2.10;;;;;;;;;;5058862;28;20028;-62
2022/05/31 14:31:04;;;;;;;3.58;1.80;;;;;;;;;;5056897;28;20037;-62
2022/05/31 14:33:36;;;;;;;5.80;1.92;;;;;;;;;;5057713;28;20536;-61
2022/05/31 14:36:03;;;;;;;3.92;1.98;;;;;;;;;;5056719;28;20393;-62
2022/05/31 14:38:33;;;;;;;3.63;1.90;;;;;;;;;;5055444;28;20032;-62
2022/05/31 14:41:19;;;;;;;6.63;2.22;;;;;;;;;;5059416;28;20521;-62
2022/05/31 14:43:52;;;;;;;5.32;1.75;;;;;;;;;;5061387;28;20037;-61
2022/05/31 14:46:35;;;;;;;4.00;1.88;;;;;;;;;;5055420;28;20551;-62
2022/05/31 14:49:11;;;;;;;3.10;1.83;;;;;;;;;;5059606;28;20029;-61
2022/05/31 14:51:39;;;;;;;12.45;2.03;;;;;;;;;;5056310;28;20041;-61
2022/05/31 14:54:33;;;;;;;6.38;1.95;;;;;;;;;;5040016;28;20029;-61
2022/05/31 14:57:04;;;;;;;8.02;2.20;;;;;;;;;;5051363;28;20033;-62
2022/05/31 14:59:31;;;;;;;8.60;1.83;;;;;;;;;;5060773;28;20028;-62
2022/05/31 15:01:57;;;;;;;2.50;1.70;;;;;;;;;;5056307;28;20489;-62
2022/05/31 15:04:33;;;;;;;11.65;2.13;;;;;;;;;;5055455;28;20094;-62
2022/05/31 15:07:01;;;;;;;2.42;1.90;;;;;;;;;;5054652;28;20442;-62
2022/05/31 15:09:30;;;;;;;10.85;2.20;;;;;;;;;;5059824;28;20044;-62
2022/05/31 15:20:32;;;;;;;8.55;1.98;;;;;;;;;;5053359;28;20450;-62
2022/05/31 15:23:02;;;;;;;3.50;1.80;;;;;;;;;;5051978;28;20393;-62
2022/05/31 15:25:28;;;;;;;3.50;1.70;;;;;;;;;;5062617;28;20027;-62
2022/05/31 15:27:54;;;;;;;6.15;1.88;;;;;;;;;;5056378;28;20689;-62
2022/05/31 15:30:19;;;;;;;4.90;2.10;;;;;;;;;;5055562;28;20043;-62
2022/05/31 15:32:46;;;;;;;6.22;1.80;;;;;;;;;;5055402;28;20107;-62
2022/05/31 15:35:13;;;;;;;7.57;2.22;;;;;;;;;;5066358;28;20051;-62
2022/05/31 15:37:39;;;;;;;4.20;1.65;;;;;;;;;;5057555;28;20044;-61
2022/05/31 15:40:07;;;;;;;2.75;1.92;;;;;;;;;;5058277;28;20031;-62
2022/05/31 15:42:33;;;;;;;6.05;2.17;;;;;;;;;;5043067;28;20025;-62
2022/05/31 15:44:59;;;;;;;5.40;1.77;;;;;;;;;;5060666;28;20035;-63
2022/05/31 15:47:25;;;;;;;9.18;2.40;;;;;;;;;;5055662;28;20473;-63
2022/05/31 15:49:51;;;;;;;14.20;2.30;;;;;;;;;;5056853;28;20048;-63
2022/05/31 15:52:27;;;;;;;7.18;2.05;;;;;;;;;;5063085;28;20036;-63
2022/05/31 15:54:56;;;;;;;2.63;1.83;;;;;;;;;;5054122;28;20071;-63
2022/05/31 15:57:24;;;;;;;2.92;1.77;;;;;;;;;;5060606;28;20478;-63
2022/05/31 15:59:50;;;;;;;7.72;2.35;;;;;;;;;;5055140;28;20097;-63
2022/05/31 16:02:16;;;;;;;4.93;1.92;;;;;;;;;;5059310;28;20111;-63